sensor_id;sensor_type;location;lat;lon;timestamp;P1;durP1;ratioP1;P2;durP2;ratioP2
12218;SDS011;6172;42.646;23.344;2024-01-06T00:01:41;13.83;;;7.17;;
12218;SDS011;6172;42.646;23.344;2024-01-06T00:04:08;11.57;;;7.43;;
12218;SDS011;6172;42.646;23.344;2024-01-06T00:06:35;11.60;;;5.80;;
12218;SDS011;6172;42.646;23.344;2024-01-06T00:09:02;14.13;;;7.00;;
12218;SDS011;6172;42.646;23.344;2024-01-06T00:11:29;17.57;;;8.40;;
12218;SDS011;6172;42.646;23.344;2024-01-06T00:13:56;15.83;;;8.57;;
12218;SDS011;6172;42.646;23.344;2024-01-06T00:16:23;22.67;;;9.50;;
12218;SDS011;6172;42.646;23.344;2024-01-06T00:18:51;17.80;;;9.90;;
12218;SDS011;6172;42.646;23.344;2024-01-06T00:21:18;17.13;;;9.37;;
12218;SDS011;6172;42.646;23.344;2024-01-06T00:23:45;24.27;;;9.60;;
12218;SDS011;6172;42.646;23.344;2024-01-06T00:26:12;23.70;;;10.53;;
12218;SDS011;6172;42.646;23.344;2024-01-06T00:28:39;20.07;;;10.47;;
12218;SDS011;6172;42.646;23.344;2024-01-06T00:31:06;25.13;;;10.90;;
12218;SDS011;6172;42.646;23.344;2024-01-06T00:33:33;20.27;;;10.90;;
12218;SDS011;6172;42.646;23.344;2024-01-06T00:36:02;21.77;;;10.60;;
12218;SDS011;6172;42.646;23.344;2024-01-06T00:38:29;21.83;;;10.80;;
12218;SDS011;6172;42.646;23.344;2024-01-06T00:40:57;19.97;;;10.57;;
12218;SDS011;6172;42.646;23.344;2024-01-06T00:43:24;17.77;;;10.37;;
12218;SDS011;6172;42.646;23.344;2024-01-06T00:45:51;18.70;;;10.03;;
12218;SDS011;6172;42.646;23.344;2024-01-06T00:48:18;17.43;;;10.43;;
12218;SDS011;6172;42.646;23.344;2024-01-06T00:50:45;20.87;;;9.63;;
12218;SDS011;6172;42.646;23.344;2024-01-06T00:53:13;18.90;;;10.60;;
12218;SDS011;6172;42.646;23.344;2024-01-06T00:55:40;18.17;;;9.07;;
12218;SDS011;6172;42.646;23.344;2024-01-06T00:58:07;22.23;;;9.57;;
12218;SDS011;6172;42.646;23.344;2024-01-06T01:00:34;17.13;;;9.20;;
12218;SDS011;6172;42.646;23.344;2024-01-06T01:03:01;16.30;;;9.30;;
12218;SDS011;6172;42.646;23.344;2024-01-06T01:05:29;18.53;;;8.80;;
12218;SDS011;6172;42.646;23.344;2024-01-06T01:07:55;17.37;;;8.77;;
12218;SDS011;6172;42.646;23.344;2024-01-06T01:10:24;17.37;;;9.33;;
12218;SDS011;6172;42.646;23.344;2024-01-06T01:12:51;20.00;;;10.37;;
12218;SDS011;6172;42.646;23.344;2024-01-06T01:15:18;21.73;;;10.47;;
12218;SDS011;6172;42.646;23.344;2024-01-06T01:17:46;17.10;;;9.10;;
12218;SDS011;6172;42.646;23.344;2024-01-06T01:20:13;20.03;;;10.23;;
12218;SDS011;6172;42.646;23.344;2024-01-06T01:22:40;19.23;;;9.93;;
12218;SDS011;6172;42.646;23.344;2024-01-06T01:25:10;17.70;;;10.37;;
12218;SDS011;6172;42.646;23.344;2024-01-06T01:27:39;15.00;;;7.47;;
12218;SDS011;6172;42.646;23.344;2024-01-06T01:30:07;15.97;;;8.60;;
12218;SDS011;6172;42.646;23.344;2024-01-06T01:32:34;15.07;;;8.50;;
12218;SDS011;6172;42.646;23.344;2024-01-06T01:35:01;15.57;;;8.37;;
12218;SDS011;6172;42.646;23.344;2024-01-06T01:37:28;18.70;;;8.60;;
12218;SDS011;6172;42.646;23.344;2024-01-06T01:39:55;17.47;;;8.23;;
12218;SDS011;6172;42.646;23.344;2024-01-06T01:42:22;16.13;;;8.77;;
12218;SDS011;6172;42.646;23.344;2024-01-06T01:44:51;14.17;;;8.20;;
12218;SDS011;6172;42.646;23.344;2024-01-06T01:47:17;16.07;;;7.40;;
12218;SDS011;6172;42.646;23.344;2024-01-06T01:49:46;19.57;;;9.17;;
12218;SDS011;6172;42.646;23.344;2024-01-06T01:52:14;13.23;;;7.87;;
12218;SDS011;6172;42.646;23.344;2024-01-06T01:54:42;14.00;;;7.63;;
12218;SDS011;6172;42.646;23.344;2024-01-06T01:57:11;15.73;;;8.37;;
12218;SDS011;6172;42.646;23.344;2024-01-06T01:59:40;15.57;;;7.43;;
12218;SDS011;6172;42.646;23.344;2024-01-06T02:02:10;16.40;;;8.17;;
12218;SDS011;6172;42.646;23.344;2024-01-06T02:04:38;14.50;;;8.73;;
12218;SDS011;6172;42.646;23.344;2024-01-06T02:07:05;16.53;;;9.07;;
12218;SDS011;6172;42.646;23.344;2024-01-06T02:09:32;16.13;;;9.43;;
12218;SDS011;6172;42.646;23.344;2024-01-06T02:12:01;23.63;;;9.03;;
12218;SDS011;6172;42.646;23.344;2024-01-06T02:14:28;20.37;;;9.00;;
12218;SDS011;6172;42.646;23.344;2024-01-06T02:16:55;18.97;;;8.83;;
12218;SDS011;6172;42.646;23.344;2024-01-06T02:19:23;18.27;;;9.60;;
12218;SDS011;6172;42.646;23.344;2024-01-06T02:21:53;16.17;;;7.93;;
12218;SDS011;6172;42.646;23.344;2024-01-06T02:24:20;13.90;;;7.87;;
12218;SDS011;6172;42.646;23.344;2024-01-06T02:26:46;15.07;;;6.67;;
12218;SDS011;6172;42.646;23.344;2024-01-06T02:29:14;15.77;;;7.40;;
12218;SDS011;6172;42.646;23.344;2024-01-06T02:31:40;24.03;;;11.87;;
12218;SDS011;6172;42.646;23.344;2024-01-06T02:34:07;16.50;;;10.23;;
12218;SDS011;6172;42.646;23.344;2024-01-06T02:36:34;19.67;;;8.80;;
12218;SDS011;6172;42.646;23.344;2024-01-06T02:39:03;17.13;;;9.90;;
12218;SDS011;6172;42.646;23.344;2024-01-06T02:41:30;19.57;;;11.63;;
12218;SDS011;6172;42.646;23.344;2024-01-06T02:43:57;19.20;;;9.47;;
12218;SDS011;6172;42.646;23.344;2024-01-06T02:46:24;14.40;;;7.97;;
12218;SDS011;6172;42.646;23.344;2024-01-06T02:48:51;15.57;;;7.83;;
12218;SDS011;6172;42.646;23.344;2024-01-06T02:51:18;18.50;;;8.03;;
12218;SDS011;6172;42.646;23.344;2024-01-06T02:53:45;14.27;;;7.33;;
12218;SDS011;6172;42.646;23.344;2024-01-06T02:56:14;10.13;;;6.23;;
12218;SDS011;6172;42.646;23.344;2024-01-06T02:58:41;11.97;;;6.07;;
12218;SDS011;6172;42.646;23.344;2024-01-06T03:01:08;10.30;;;5.73;;
12218;SDS011;6172;42.646;23.344;2024-01-06T03:03:35;9.53;;;5.30;;
12218;SDS011;6172;42.646;23.344;2024-01-06T03:06:02;10.30;;;5.37;;
12218;SDS011;6172;42.646;23.344;2024-01-06T03:08:29;10.57;;;5.33;;
12218;SDS011;6172;42.646;23.344;2024-01-06T03:10:56;9.80;;;5.60;;
12218;SDS011;6172;42.646;23.344;2024-01-06T03:13:24;10.93;;;5.70;;
12218;SDS011;6172;42.646;23.344;2024-01-06T03:15:51;8.40;;;5.43;;
12218;SDS011;6172;42.646;23.344;2024-01-06T03:18:19;10.60;;;5.67;;
12218;SDS011;6172;42.646;23.344;2024-01-06T03:20:46;8.93;;;5.70;;
12218;SDS011;6172;42.646;23.344;2024-01-06T03:23:13;8.13;;;5.40;;
12218;SDS011;6172;42.646;23.344;2024-01-06T03:25:40;10.10;;;5.07;;
12218;SDS011;6172;42.646;23.344;2024-01-06T03:28:07;8.90;;;5.33;;
12218;SDS011;6172;42.646;23.344;2024-01-06T03:30:36;7.93;;;4.73;;
12218;SDS011;6172;42.646;23.344;2024-01-06T03:33:03;8.83;;;5.03;;
12218;SDS011;6172;42.646;23.344;2024-01-06T03:35:30;6.30;;;4.00;;
12218;SDS011;6172;42.646;23.344;2024-01-06T03:37:57;7.70;;;4.90;;
12218;SDS011;6172;42.646;23.344;2024-01-06T03:40:24;7.53;;;4.13;;
12218;SDS011;6172;42.646;23.344;2024-01-06T03:42:51;7.57;;;4.47;;
12218;SDS011;6172;42.646;23.344;2024-01-06T03:45:19;9.53;;;5.33;;
12218;SDS011;6172;42.646;23.344;2024-01-06T03:47:47;8.57;;;4.40;;
12218;SDS011;6172;42.646;23.344;2024-01-06T03:50:14;6.70;;;4.47;;
12218;SDS011;6172;42.646;23.344;2024-01-06T03:52:41;6.47;;;4.30;;
12218;SDS011;6172;42.646;23.344;2024-01-06T03:55:08;7.50;;;4.50;;
12218;SDS011;6172;42.646;23.344;2024-01-06T03:57:36;7.13;;;4.00;;
12218;SDS011;6172;42.646;23.344;2024-01-06T04:00:03;5.67;;;3.70;;
12218;SDS011;6172;42.646;23.344;2024-01-06T04:02:31;7.60;;;3.37;;
12218;SDS011;6172;42.646;23.344;2024-01-06T04:04:59;4.90;;;2.93;;
12218;SDS011;6172;42.646;23.344;2024-01-06T04:07:26;8.43;;;4.40;;
12218;SDS011;6172;42.646;23.344;2024-01-06T04:09:53;10.63;;;4.43;;
12218;SDS011;6172;42.646;23.344;2024-01-06T04:12:20;11.10;;;4.07;;
12218;SDS011;6172;42.646;23.344;2024-01-06T04:14:47;8.20;;;3.97;;
12218;SDS011;6172;42.646;23.344;2024-01-06T04:17:14;7.27;;;4.07;;
12218;SDS011;6172;42.646;23.344;2024-01-06T04:19:41;10.63;;;4.00;;
12218;SDS011;6172;42.646;23.344;2024-01-06T04:22:10;6.10;;;3.20;;
12218;SDS011;6172;42.646;23.344;2024-01-06T04:24:36;7.30;;;4.40;;
12218;SDS011;6172;42.646;23.344;2024-01-06T04:27:04;6.60;;;4.27;;
12218;SDS011;6172;42.646;23.344;2024-01-06T04:29:31;12.20;;;4.67;;
12218;SDS011;6172;42.646;23.344;2024-01-06T04:31:58;10.07;;;4.67;;
12218;SDS011;6172;42.646;23.344;2024-01-06T04:34:25;6.63;;;4.47;;
12218;SDS011;6172;42.646;23.344;2024-01-06T04:36:52;7.47;;;4.50;;
12218;SDS011;6172;42.646;23.344;2024-01-06T04:39:21;7.60;;;4.40;;
12218;SDS011;6172;42.646;23.344;2024-01-06T04:41:48;8.20;;;4.87;;
12218;SDS011;6172;42.646;23.344;2024-01-06T04:44:15;8.07;;;5.00;;
12218;SDS011;6172;42.646;23.344;2024-01-06T04:46:42;8.17;;;5.00;;
12218;SDS011;6172;42.646;23.344;2024-01-06T04:49:09;9.20;;;5.50;;
12218;SDS011;6172;42.646;23.344;2024-01-06T04:51:36;12.97;;;4.67;;
12218;SDS011;6172;42.646;23.344;2024-01-06T04:54:03;12.33;;;5.53;;
12218;SDS011;6172;42.646;23.344;2024-01-06T04:56:32;10.17;;;4.87;;
12218;SDS011;6172;42.646;23.344;2024-01-06T04:58:59;8.73;;;5.03;;
12218;SDS011;6172;42.646;23.344;2024-01-06T05:01:26;8.73;;;5.77;;
12218;SDS011;6172;42.646;23.344;2024-01-06T05:03:53;8.77;;;4.90;;
12218;SDS011;6172;42.646;23.344;2024-01-06T05:06:20;11.33;;;5.63;;
12218;SDS011;6172;42.646;23.344;2024-01-06T05:08:48;13.13;;;5.90;;
12218;SDS011;6172;42.646;23.344;2024-01-06T05:11:15;11.90;;;5.13;;
12218;SDS011;6172;42.646;23.344;2024-01-06T05:13:44;9.47;;;4.73;;
12218;SDS011;6172;42.646;23.344;2024-01-06T05:16:11;12.07;;;6.23;;
12218;SDS011;6172;42.646;23.344;2024-01-06T05:18:38;9.93;;;5.57;;
12218;SDS011;6172;42.646;23.344;2024-01-06T05:21:05;7.03;;;4.77;;
12218;SDS011;6172;42.646;23.344;2024-01-06T05:23:32;9.17;;;5.27;;
12218;SDS011;6172;42.646;23.344;2024-01-06T05:25:59;9.73;;;5.40;;
12218;SDS011;6172;42.646;23.344;2024-01-06T05:28:26;9.73;;;5.10;;
12218;SDS011;6172;42.646;23.344;2024-01-06T05:30:54;5.63;;;4.33;;
12218;SDS011;6172;42.646;23.344;2024-01-06T05:33:21;6.30;;;4.13;;
12218;SDS011;6172;42.646;23.344;2024-01-06T05:35:48;9.30;;;4.53;;
12218;SDS011;6172;42.646;23.344;2024-01-06T05:38:15;8.30;;;4.47;;
12218;SDS011;6172;42.646;23.344;2024-01-06T05:40:42;8.13;;;4.33;;
12218;SDS011;6172;42.646;23.344;2024-01-06T05:43:09;8.40;;;4.13;;
12218;SDS011;6172;42.646;23.344;2024-01-06T05:45:36;12.37;;;4.80;;
12218;SDS011;6172;42.646;23.344;2024-01-06T05:48:09;11.40;;;5.33;;
12218;SDS011;6172;42.646;23.344;2024-01-06T05:50:37;7.37;;;4.20;;
12218;SDS011;6172;42.646;23.344;2024-01-06T05:53:04;10.37;;;4.57;;
12218;SDS011;6172;42.646;23.344;2024-01-06T05:55:31;7.47;;;4.60;;
12218;SDS011;6172;42.646;23.344;2024-01-06T05:57:58;5.43;;;3.83;;
12218;SDS011;6172;42.646;23.344;2024-01-06T06:00:26;9.20;;;4.23;;
12218;SDS011;6172;42.646;23.344;2024-01-06T06:02:53;8.03;;;4.67;;
12218;SDS011;6172;42.646;23.344;2024-01-06T06:05:21;8.07;;;4.80;;
12218;SDS011;6172;42.646;23.344;2024-01-06T06:07:48;9.33;;;4.87;;
12218;SDS011;6172;42.646;23.344;2024-01-06T06:10:15;9.67;;;4.20;;
12218;SDS011;6172;42.646;23.344;2024-01-06T06:12:44;8.60;;;4.60;;
12218;SDS011;6172;42.646;23.344;2024-01-06T06:15:11;11.93;;;4.20;;
12218;SDS011;6172;42.646;23.344;2024-01-06T06:17:38;12.00;;;4.83;;
12218;SDS011;6172;42.646;23.344;2024-01-06T06:20:06;6.57;;;4.40;;
12218;SDS011;6172;42.646;23.344;2024-01-06T06:22:34;13.27;;;4.70;;
12218;SDS011;6172;42.646;23.344;2024-01-06T06:25:01;14.63;;;5.37;;
12218;SDS011;6172;42.646;23.344;2024-01-06T06:27:28;7.70;;;4.87;;
12218;SDS011;6172;42.646;23.344;2024-01-06T06:29:56;9.23;;;4.93;;
12218;SDS011;6172;42.646;23.344;2024-01-06T06:32:23;12.10;;;4.77;;
12218;SDS011;6172;42.646;23.344;2024-01-06T06:34:50;10.60;;;5.03;;
12218;SDS011;6172;42.646;23.344;2024-01-06T06:37:17;8.43;;;4.57;;
12218;SDS011;6172;42.646;23.344;2024-01-06T06:39:46;8.83;;;4.83;;
12218;SDS011;6172;42.646;23.344;2024-01-06T06:42:13;7.87;;;4.00;;
12218;SDS011;6172;42.646;23.344;2024-01-06T06:44:40;10.47;;;4.60;;
12218;SDS011;6172;42.646;23.344;2024-01-06T06:47:07;11.07;;;4.27;;
12218;SDS011;6172;42.646;23.344;2024-01-06T06:49:34;11.90;;;4.63;;
12218;SDS011;6172;42.646;23.344;2024-01-06T06:52:01;10.43;;;5.57;;
12218;SDS011;6172;42.646;23.344;2024-01-06T06:54:28;10.30;;;5.43;;
12218;SDS011;6172;42.646;23.344;2024-01-06T06:56:57;10.13;;;5.57;;
12218;SDS011;6172;42.646;23.344;2024-01-06T06:59:24;9.97;;;5.63;;
12218;SDS011;6172;42.646;23.344;2024-01-06T07:01:52;10.33;;;5.67;;
12218;SDS011;6172;42.646;23.344;2024-01-06T07:04:19;11.80;;;5.23;;
12218;SDS011;6172;42.646;23.344;2024-01-06T07:06:48;13.60;;;4.97;;
12218;SDS011;6172;42.646;23.344;2024-01-06T07:09:15;7.83;;;5.07;;
12218;SDS011;6172;42.646;23.344;2024-01-06T07:11:42;9.73;;;5.73;;
12218;SDS011;6172;42.646;23.344;2024-01-06T07:14:10;10.63;;;5.93;;
12218;SDS011;6172;42.646;23.344;2024-01-06T07:16:37;8.20;;;5.63;;
12218;SDS011;6172;42.646;23.344;2024-01-06T07:19:05;12.27;;;5.90;;
12218;SDS011;6172;42.646;23.344;2024-01-06T07:21:32;11.40;;;5.10;;
12218;SDS011;6172;42.646;23.344;2024-01-06T07:23:59;7.23;;;5.00;;
12218;SDS011;6172;42.646;23.344;2024-01-06T07:26:26;8.60;;;5.67;;
12218;SDS011;6172;42.646;23.344;2024-01-06T07:28:54;10.63;;;5.23;;
12218;SDS011;6172;42.646;23.344;2024-01-06T07:31:23;8.97;;;5.50;;
12218;SDS011;6172;42.646;23.344;2024-01-06T07:33:50;10.53;;;5.57;;
12218;SDS011;6172;42.646;23.344;2024-01-06T07:36:17;10.13;;;5.53;;
12218;SDS011;6172;42.646;23.344;2024-01-06T07:38:44;9.33;;;5.40;;
12218;SDS011;6172;42.646;23.344;2024-01-06T07:41:11;16.00;;;5.73;;
12218;SDS011;6172;42.646;23.344;2024-01-06T07:43:39;10.60;;;5.50;;
12218;SDS011;6172;42.646;23.344;2024-01-06T07:46:06;11.63;;;6.67;;
12218;SDS011;6172;42.646;23.344;2024-01-06T07:48:36;11.97;;;6.20;;
12218;SDS011;6172;42.646;23.344;2024-01-06T07:51:03;11.27;;;6.40;;
12218;SDS011;6172;42.646;23.344;2024-01-06T07:53:30;21.87;;;6.37;;
12218;SDS011;6172;42.646;23.344;2024-01-06T07:55:58;12.93;;;6.50;;
12218;SDS011;6172;42.646;23.344;2024-01-06T07:58:25;11.73;;;6.03;;
12218;SDS011;6172;42.646;23.344;2024-01-06T08:00:53;11.53;;;6.33;;
12218;SDS011;6172;42.646;23.344;2024-01-06T08:03:20;8.50;;;5.57;;
12218;SDS011;6172;42.646;23.344;2024-01-06T08:05:49;13.63;;;6.27;;
12218;SDS011;6172;42.646;23.344;2024-01-06T08:08:16;6.80;;;4.63;;
12218;SDS011;6172;42.646;23.344;2024-01-06T08:10:44;10.40;;;5.20;;
12218;SDS011;6172;42.646;23.344;2024-01-06T08:13:17;16.60;;;6.27;;
12218;SDS011;6172;42.646;23.344;2024-01-06T08:15:44;10.70;;;5.90;;
12218;SDS011;6172;42.646;23.344;2024-01-06T08:18:11;13.73;;;7.00;;
12218;SDS011;6172;42.646;23.344;2024-01-06T08:20:38;10.03;;;6.17;;
12218;SDS011;6172;42.646;23.344;2024-01-06T08:23:07;10.30;;;5.00;;
12218;SDS011;6172;42.646;23.344;2024-01-06T08:25:34;11.70;;;5.13;;
12218;SDS011;6172;42.646;23.344;2024-01-06T08:28:01;12.63;;;5.20;;
12218;SDS011;6172;42.646;23.344;2024-01-06T08:30:28;14.33;;;5.90;;
12218;SDS011;6172;42.646;23.344;2024-01-06T08:32:55;11.10;;;5.27;;
12218;SDS011;6172;42.646;23.344;2024-01-06T08:35:24;15.67;;;4.63;;
12218;SDS011;6172;42.646;23.344;2024-01-06T08:37:51;8.07;;;4.03;;
12218;SDS011;6172;42.646;23.344;2024-01-06T08:40:20;8.97;;;5.10;;
12218;SDS011;6172;42.646;23.344;2024-01-06T08:42:47;15.87;;;6.40;;
12218;SDS011;6172;42.646;23.344;2024-01-06T08:45:14;13.97;;;5.67;;
12218;SDS011;6172;42.646;23.344;2024-01-06T08:47:41;9.43;;;5.87;;
12218;SDS011;6172;42.646;23.344;2024-01-06T08:50:08;15.67;;;6.67;;
12218;SDS011;6172;42.646;23.344;2024-01-06T08:52:35;12.63;;;6.53;;
12218;SDS011;6172;42.646;23.344;2024-01-06T08:55:02;11.20;;;6.90;;
12218;SDS011;6172;42.646;23.344;2024-01-06T08:57:31;15.53;;;7.57;;
12218;SDS011;6172;42.646;23.344;2024-01-06T08:59:58;12.70;;;6.63;;
12218;SDS011;6172;42.646;23.344;2024-01-06T09:02:25;12.97;;;6.23;;
12218;SDS011;6172;42.646;23.344;2024-01-06T09:04:53;16.77;;;5.50;;
12218;SDS011;6172;42.646;23.344;2024-01-06T09:07:20;16.07;;;5.70;;
12218;SDS011;6172;42.646;23.344;2024-01-06T09:09:47;18.93;;;5.67;;
12218;SDS011;6172;42.646;23.344;2024-01-06T09:12:14;14.20;;;5.70;;
12218;SDS011;6172;42.646;23.344;2024-01-06T09:14:42;13.30;;;6.13;;
12218;SDS011;6172;42.646;23.344;2024-01-06T09:17:10;14.30;;;6.07;;
12218;SDS011;6172;42.646;23.344;2024-01-06T09:19:37;10.40;;;6.03;;
12218;SDS011;6172;42.646;23.344;2024-01-06T09:22:04;14.43;;;6.70;;
12218;SDS011;6172;42.646;23.344;2024-01-06T09:24:31;8.87;;;5.33;;
12218;SDS011;6172;42.646;23.344;2024-01-06T09:26:59;11.67;;;6.87;;
12218;SDS011;6172;42.646;23.344;2024-01-06T09:29:26;9.93;;;6.33;;
12218;SDS011;6172;42.646;23.344;2024-01-06T09:31:55;16.23;;;6.67;;
12218;SDS011;6172;42.646;23.344;2024-01-06T09:34:21;12.00;;;7.47;;
12218;SDS011;6172;42.646;23.344;2024-01-06T09:36:48;11.70;;;6.43;;
12218;SDS011;6172;42.646;23.344;2024-01-06T09:39:15;11.73;;;6.27;;
12218;SDS011;6172;42.646;23.344;2024-01-06T09:41:43;16.50;;;7.53;;
12218;SDS011;6172;42.646;23.344;2024-01-06T09:44:10;10.50;;;5.97;;
12218;SDS011;6172;42.646;23.344;2024-01-06T09:46:37;8.83;;;5.57;;
12218;SDS011;6172;42.646;23.344;2024-01-06T09:49:07;11.00;;;5.60;;
12218;SDS011;6172;42.646;23.344;2024-01-06T09:51:35;8.43;;;5.53;;
12218;SDS011;6172;42.646;23.344;2024-01-06T09:54:04;11.33;;;5.60;;
12218;SDS011;6172;42.646;23.344;2024-01-06T09:56:36;16.17;;;7.70;;
12218;SDS011;6172;42.646;23.344;2024-01-06T09:59:03;11.83;;;7.53;;
12218;SDS011;6172;42.646;23.344;2024-01-06T10:01:30;10.80;;;7.37;;
12218;SDS011;6172;42.646;23.344;2024-01-06T10:03:57;20.40;;;10.53;;
12218;SDS011;6172;42.646;23.344;2024-01-06T10:06:26;23.47;;;12.87;;
12218;SDS011;6172;42.646;23.344;2024-01-06T10:08:56;25.80;;;14.90;;
12218;SDS011;6172;42.646;23.344;2024-01-06T10:11:24;26.43;;;15.03;;
12218;SDS011;6172;42.646;23.344;2024-01-06T10:13:53;24.07;;;16.27;;
12218;SDS011;6172;42.646;23.344;2024-01-06T10:16:21;25.67;;;15.77;;
12218;SDS011;6172;42.646;23.344;2024-01-06T10:18:49;29.83;;;18.27;;
12218;SDS011;6172;42.646;23.344;2024-01-06T10:21:16;32.53;;;17.90;;
12218;SDS011;6172;42.646;23.344;2024-01-06T10:23:46;31.63;;;18.67;;
12218;SDS011;6172;42.646;23.344;2024-01-06T10:26:16;33.07;;;18.10;;
12218;SDS011;6172;42.646;23.344;2024-01-06T10:28:49;34.60;;;18.30;;
12218;SDS011;6172;42.646;23.344;2024-01-06T10:31:16;29.03;;;16.50;;
12218;SDS011;6172;42.646;23.344;2024-01-06T10:33:45;27.70;;;16.53;;
12218;SDS011;6172;42.646;23.344;2024-01-06T10:36:13;22.90;;;15.07;;
12218;SDS011;6172;42.646;23.344;2024-01-06T10:38:40;26.07;;;15.03;;
12218;SDS011;6172;42.646;23.344;2024-01-06T10:41:09;30.60;;;14.60;;
12218;SDS011;6172;42.646;23.344;2024-01-06T10:43:39;21.97;;;14.57;;
12218;SDS011;6172;42.646;23.344;2024-01-06T10:46:09;24.03;;;14.23;;
12218;SDS011;6172;42.646;23.344;2024-01-06T10:48:36;28.57;;;15.37;;
12218;SDS011;6172;42.646;23.344;2024-01-06T10:51:07;35.83;;;14.97;;
12218;SDS011;6172;42.646;23.344;2024-01-06T10:53:37;24.30;;;14.57;;
12218;SDS011;6172;42.646;23.344;2024-01-06T10:56:09;26.40;;;15.17;;
12218;SDS011;6172;42.646;23.344;2024-01-06T10:58:37;29.40;;;15.83;;
12218;SDS011;6172;42.646;23.344;2024-01-06T11:01:10;24.33;;;15.67;;
12218;SDS011;6172;42.646;23.344;2024-01-06T11:03:43;29.63;;;17.37;;
12218;SDS011;6172;42.646;23.344;2024-01-06T11:06:12;30.67;;;17.53;;
12218;SDS011;6172;42.646;23.344;2024-01-06T11:08:40;30.37;;;17.30;;
12218;SDS011;6172;42.646;23.344;2024-01-06T11:11:19;32.53;;;16.93;;
12218;SDS011;6172;42.646;23.344;2024-01-06T11:13:49;33.90;;;17.50;;
12218;SDS011;6172;42.646;23.344;2024-01-06T11:19:01;30.27;;;17.57;;
12218;SDS011;6172;42.646;23.344;2024-01-06T11:21:34;30.90;;;17.60;;
12218;SDS011;6172;42.646;23.344;2024-01-06T11:27:06;25.27;;;15.20;;
12218;SDS011;6172;42.646;23.344;2024-01-06T11:29:40;18.57;;;11.63;;
12218;SDS011;6172;42.646;23.344;2024-01-06T11:32:33;18.03;;;10.57;;
12218;SDS011;6172;42.646;23.344;2024-01-06T11:35:06;22.50;;;11.37;;
12218;SDS011;6172;42.646;23.344;2024-01-06T11:38:00;19.17;;;10.47;;
12218;SDS011;6172;42.646;23.344;2024-01-06T11:41:06;21.73;;;10.67;;
12218;SDS011;6172;42.646;23.344;2024-01-06T11:43:49;14.97;;;7.53;;
12218;SDS011;6172;42.646;23.344;2024-01-06T11:46:37;16.47;;;7.30;;
12218;SDS011;6172;42.646;23.344;2024-01-06T11:49:10;9.50;;;5.10;;
12218;SDS011;6172;42.646;23.344;2024-01-06T11:51:41;10.20;;;5.90;;
12218;SDS011;6172;42.646;23.344;2024-01-06T11:54:10;14.00;;;5.13;;
12218;SDS011;6172;42.646;23.344;2024-01-06T11:56:39;19.23;;;5.80;;
12218;SDS011;6172;42.646;23.344;2024-01-06T11:59:07;12.57;;;6.00;;
12218;SDS011;6172;42.646;23.344;2024-01-06T12:01:36;10.77;;;5.90;;
12218;SDS011;6172;42.646;23.344;2024-01-06T12:04:03;12.00;;;6.00;;
12218;SDS011;6172;42.646;23.344;2024-01-06T12:06:31;10.27;;;5.67;;
12218;SDS011;6172;42.646;23.344;2024-01-06T12:09:04;16.87;;;6.47;;
12218;SDS011;6172;42.646;23.344;2024-01-06T12:11:32;19.93;;;7.27;;
12218;SDS011;6172;42.646;23.344;2024-01-06T12:14:02;13.00;;;7.13;;
12218;SDS011;6172;42.646;23.344;2024-01-06T12:16:30;14.30;;;8.00;;
12218;SDS011;6172;42.646;23.344;2024-01-06T12:18:58;14.73;;;7.53;;
12218;SDS011;6172;42.646;23.344;2024-01-06T12:21:26;15.43;;;7.77;;
12218;SDS011;6172;42.646;23.344;2024-01-06T12:23:54;12.60;;;6.63;;
12218;SDS011;6172;42.646;23.344;2024-01-06T12:26:22;12.67;;;7.00;;
12218;SDS011;6172;42.646;23.344;2024-01-06T12:28:51;10.03;;;5.57;;
12218;SDS011;6172;42.646;23.344;2024-01-06T12:31:18;12.13;;;6.20;;
12218;SDS011;6172;42.646;23.344;2024-01-06T12:33:47;11.70;;;6.60;;
12218;SDS011;6172;42.646;23.344;2024-01-06T12:36:15;16.23;;;6.87;;
12218;SDS011;6172;42.646;23.344;2024-01-06T12:38:43;17.13;;;6.63;;
12218;SDS011;6172;42.646;23.344;2024-01-06T12:41:10;15.43;;;7.13;;
12218;SDS011;6172;42.646;23.344;2024-01-06T12:43:38;10.50;;;6.87;;
12218;SDS011;6172;42.646;23.344;2024-01-06T12:46:05;15.63;;;7.60;;
12218;SDS011;6172;42.646;23.344;2024-01-06T12:48:32;12.60;;;6.10;;
12218;SDS011;6172;42.646;23.344;2024-01-06T12:51:00;13.50;;;7.87;;
12218;SDS011;6172;42.646;23.344;2024-01-06T12:53:28;13.50;;;7.40;;
12218;SDS011;6172;42.646;23.344;2024-01-06T12:55:55;15.40;;;7.70;;
12218;SDS011;6172;42.646;23.344;2024-01-06T12:58:22;16.63;;;7.60;;
12218;SDS011;6172;42.646;23.344;2024-01-06T13:00:50;12.57;;;7.00;;
12218;SDS011;6172;42.646;23.344;2024-01-06T13:03:17;13.77;;;7.17;;
12218;SDS011;6172;42.646;23.344;2024-01-06T13:05:45;14.03;;;7.50;;
12218;SDS011;6172;42.646;23.344;2024-01-06T13:08:23;12.10;;;7.77;;
12218;SDS011;6172;42.646;23.344;2024-01-06T13:10:51;15.13;;;7.23;;
12218;SDS011;6172;42.646;23.344;2024-01-06T13:13:19;13.40;;;7.83;;
12218;SDS011;6172;42.646;23.344;2024-01-06T13:15:46;12.60;;;7.33;;
12218;SDS011;6172;42.646;23.344;2024-01-06T13:18:13;16.80;;;8.10;;
12218;SDS011;6172;42.646;23.344;2024-01-06T13:20:42;15.70;;;7.73;;
12218;SDS011;6172;42.646;23.344;2024-01-06T13:23:09;12.90;;;7.43;;
12218;SDS011;6172;42.646;23.344;2024-01-06T13:25:43;13.47;;;7.47;;
12218;SDS011;6172;42.646;23.344;2024-01-06T13:28:11;14.77;;;7.57;;
12218;SDS011;6172;42.646;23.344;2024-01-06T13:30:42;21.37;;;8.47;;
12218;SDS011;6172;42.646;23.344;2024-01-06T13:33:09;17.20;;;7.73;;
12218;SDS011;6172;42.646;23.344;2024-01-06T13:35:37;13.77;;;7.20;;
12218;SDS011;6172;42.646;23.344;2024-01-06T13:38:04;12.63;;;7.70;;
12218;SDS011;6172;42.646;23.344;2024-01-06T13:40:32;18.77;;;8.10;;
12218;SDS011;6172;42.646;23.344;2024-01-06T13:43:01;20.23;;;7.43;;
12218;SDS011;6172;42.646;23.344;2024-01-06T13:45:30;11.63;;;6.00;;
12218;SDS011;6172;42.646;23.344;2024-01-06T13:47:57;11.70;;;6.47;;
12218;SDS011;6172;42.646;23.344;2024-01-06T13:50:24;11.90;;;6.80;;
12218;SDS011;6172;42.646;23.344;2024-01-06T13:52:51;11.03;;;5.87;;
12218;SDS011;6172;42.646;23.344;2024-01-06T13:55:20;12.83;;;5.07;;
12218;SDS011;6172;42.646;23.344;2024-01-06T13:57:48;13.93;;;6.23;;
12218;SDS011;6172;42.646;23.344;2024-01-06T14:00:17;11.50;;;5.67;;
12218;SDS011;6172;42.646;23.344;2024-01-06T14:02:45;10.57;;;5.33;;
12218;SDS011;6172;42.646;23.344;2024-01-06T14:05:13;9.83;;;5.00;;
12218;SDS011;6172;42.646;23.344;2024-01-06T14:07:40;9.10;;;5.20;;
12218;SDS011;6172;42.646;23.344;2024-01-06T14:10:10;13.93;;;5.90;;
12218;SDS011;6172;42.646;23.344;2024-01-06T14:12:39;13.07;;;4.90;;
12218;SDS011;6172;42.646;23.344;2024-01-06T14:15:12;11.27;;;5.23;;
12218;SDS011;6172;42.646;23.344;2024-01-06T14:17:44;9.83;;;5.17;;
12218;SDS011;6172;42.646;23.344;2024-01-06T14:20:14;8.37;;;5.37;;
12218;SDS011;6172;42.646;23.344;2024-01-06T14:22:43;8.20;;;4.50;;
12218;SDS011;6172;42.646;23.344;2024-01-06T14:25:11;11.97;;;6.03;;
12218;SDS011;6172;42.646;23.344;2024-01-06T14:27:38;12.97;;;6.90;;
12218;SDS011;6172;42.646;23.344;2024-01-06T14:30:06;18.37;;;7.13;;
12218;SDS011;6172;42.646;23.344;2024-01-06T14:32:35;19.90;;;6.10;;
12218;SDS011;6172;42.646;23.344;2024-01-06T14:35:04;15.60;;;6.67;;
12218;SDS011;6172;42.646;23.344;2024-01-06T14:37:36;25.97;;;6.70;;
12218;SDS011;6172;42.646;23.344;2024-01-06T14:40:03;21.43;;;6.70;;
12218;SDS011;6172;42.646;23.344;2024-01-06T14:42:32;25.73;;;7.87;;
12218;SDS011;6172;42.646;23.344;2024-01-06T14:44:59;15.23;;;7.77;;
12218;SDS011;6172;42.646;23.344;2024-01-06T14:47:26;24.17;;;8.63;;